sensor_id;sensor_type;location;lat;lon;timestamp;P1;durP1;ratioP1;P2;durP2;ratioP2
55003;SDS011;40900;52.710;6.438;2023-05-10T00:01:24;19.05;;;16.90;;
55003;SDS011;40900;52.710;6.438;2023-05-10T00:03:50;20.90;;;18.70;;
55003;SDS011;40900;52.710;6.438;2023-05-10T00:06:16;20.05;;;17.88;;
55003;SDS011;40900;52.710;6.438;2023-05-10T00:08:42;20.08;;;18.02;;
55003;SDS011;40900;52.710;6.438;2023-05-10T00:11:07;20.77;;;18.23;;
55003;SDS011;40900;52.710;6.438;2023-05-10T00:13:33;20.75;;;18.13;;
55003;SDS011;40900;52.710;6.438;2023-05-10T00:15:59;19.42;;;17.48;;
55003;SDS011;40900;52.710;6.438;2023-05-10T00:18:24;21.40;;;19.13;;
55003;SDS011;40900;52.710;6.438;2023-05-10T00:20:50;22.17;;;19.83;;
55003;SDS011;40900;52.710;6.438;2023-05-10T00:23:16;23.85;;;20.55;;
55003;SDS011;40900;52.710;6.438;2023-05-10T00:25:42;21.77;;;19.60;;
55003;SDS011;40900;52.710;6.438;2023-05-10T00:28:07;22.83;;;19.50;;
55003;SDS011;40900;52.710;6.438;2023-05-10T00:30:33;20.38;;;17.77;;
55003;SDS011;40900;52.710;6.438;2023-05-10T00:32:59;24.92;;;19.77;;
55003;SDS011;40900;52.710;6.438;2023-05-10T00:35:25;20.08;;;17.98;;
55003;SDS011;40900;52.710;6.438;2023-05-10T00:37:51;22.30;;;17.95;;
55003;SDS011;40900;52.710;6.438;2023-05-10T00:40:16;22.85;;;19.70;;
55003;SDS011;40900;52.710;6.438;2023-05-10T00:42:42;19.88;;;17.73;;
55003;SDS011;40900;52.710;6.438;2023-05-10T00:45:08;20.50;;;17.95;;
55003;SDS011;40900;52.710;6.438;2023-05-10T00:47:34;21.80;;;18.25;;
55003;SDS011;40900;52.710;6.438;2023-05-10T00:50:00;21.38;;;19.10;;
55003;SDS011;40900;52.710;6.438;2023-05-10T00:52:29;22.48;;;18.83;;
55003;SDS011;40900;52.710;6.438;2023-05-10T00:54:55;23.42;;;17.38;;
55003;SDS011;40900;52.710;6.438;2023-05-10T00:57:22;18.90;;;16.67;;
55003;SDS011;40900;52.710;6.438;2023-05-10T00:59:48;20.70;;;17.27;;
55003;SDS011;40900;52.710;6.438;2023-05-10T01:02:14;20.23;;;16.08;;
55003;SDS011;40900;52.710;6.438;2023-05-10T01:04:40;18.13;;;14.93;;
55003;SDS011;40900;52.710;6.438;2023-05-10T01:07:06;18.17;;;14.40;;
55003;SDS011;40900;52.710;6.438;2023-05-10T01:09:32;15.13;;;13.45;;
55003;SDS011;40900;52.710;6.438;2023-05-10T01:11:58;15.25;;;13.35;;
55003;SDS011;40900;52.710;6.438;2023-05-10T01:14:25;17.33;;;13.07;;
55003;SDS011;40900;52.710;6.438;2023-05-10T01:16:52;16.83;;;12.75;;
55003;SDS011;40900;52.710;6.438;2023-05-10T01:19:28;16.42;;;13.77;;
55003;SDS011;40900;52.710;6.438;2023-05-10T01:22:05;16.20;;;13.43;;
55003;SDS011;40900;52.710;6.438;2023-05-10T01:25:18;12.88;;;11.57;;
55003;SDS011;40900;52.710;6.438;2023-05-10T01:33:26;12.82;;;11.38;;
55003;SDS011;40900;52.710;6.438;2023-05-10T01:39:01;12.02;;;10.80;;
55003;SDS011;40900;52.710;6.438;2023-05-10T01:41:46;12.60;;;11.02;;
55003;SDS011;40900;52.710;6.438;2023-05-10T01:47:17;12.50;;;11.20;;
55003;SDS011;40900;52.710;6.438;2023-05-10T01:55:00;10.95;;;9.68;;
55003;SDS011;40900;52.710;6.438;2023-05-10T01:57:32;12.77;;;11.48;;
55003;SDS011;40900;52.710;6.438;2023-05-10T02:00:02;11.73;;;9.93;;
55003;SDS011;40900;52.710;6.438;2023-05-10T02:02:29;10.80;;;9.65;;
55003;SDS011;40900;52.710;6.438;2023-05-10T02:04:58;13.98;;;10.50;;
55003;SDS011;40900;52.710;6.438;2023-05-10T02:07:24;11.32;;;9.95;;
55003;SDS011;40900;52.710;6.438;2023-05-10T02:09:53;11.27;;;9.13;;
55003;SDS011;40900;52.710;6.438;2023-05-10T02:12:19;9.55;;;8.65;;
55003;SDS011;40900;52.710;6.438;2023-05-10T02:14:47;9.88;;;8.85;;
55003;SDS011;40900;52.710;6.438;2023-05-10T02:17:14;10.48;;;8.50;;
55003;SDS011;40900;52.710;6.438;2023-05-10T02:19:41;10.70;;;8.50;;
55003;SDS011;40900;52.710;6.438;2023-05-10T02:22:08;9.52;;;8.38;;
55003;SDS011;40900;52.710;6.438;2023-05-10T02:24:34;10.82;;;8.30;;
55003;SDS011;40900;52.710;6.438;2023-05-10T02:27:02;8.43;;;7.53;;
55003;SDS011;40900;52.710;6.438;2023-05-10T02:29:29;10.98;;;8.60;;
55003;SDS011;40900;52.710;6.438;2023-05-10T02:31:57;9.98;;;8.00;;
55003;SDS011;40900;52.710;6.438;2023-05-10T02:34:27;8.65;;;7.72;;
55003;SDS011;40900;52.710;6.438;2023-05-10T02:36:53;9.27;;;7.97;;
55003;SDS011;40900;52.710;6.438;2023-05-10T02:39:21;10.55;;;7.78;;
55003;SDS011;40900;52.710;6.438;2023-05-10T02:41:48;8.90;;;7.75;;
55003;SDS011;40900;52.710;6.438;2023-05-10T02:44:15;10.18;;;8.02;;
55003;SDS011;40900;52.710;6.438;2023-05-10T02:46:44;9.48;;;7.85;;
55003;SDS011;40900;52.710;6.438;2023-05-10T02:49:10;10.45;;;7.72;;
55003;SDS011;40900;52.710;6.438;2023-05-10T02:51:37;9.77;;;8.38;;
55003;SDS011;40900;52.710;6.438;2023-05-10T02:54:12;12.35;;;9.18;;
55003;SDS011;40900;52.710;6.438;2023-05-10T02:57:03;10.38;;;9.23;;
55003;SDS011;40900;52.710;6.438;2023-05-10T02:59:30;13.48;;;9.60;;
55003;SDS011;40900;52.710;6.438;2023-05-10T03:01:57;12.57;;;9.18;;
55003;SDS011;40900;52.710;6.438;2023-05-10T03:04:25;13.18;;;9.55;;
55003;SDS011;40900;52.710;6.438;2023-05-10T03:06:51;11.27;;;10.18;;
55003;SDS011;40900;52.710;6.438;2023-05-10T03:09:17;11.25;;;10.05;;
55003;SDS011;40900;52.710;6.438;2023-05-10T03:11:47;10.38;;;8.82;;
55003;SDS011;40900;52.710;6.438;2023-05-10T03:14:53;10.60;;;9.23;;
55003;SDS011;40900;52.710;6.438;2023-05-10T03:17:25;10.32;;;9.23;;
55003;SDS011;40900;52.710;6.438;2023-05-10T03:20:11;12.77;;;10.00;;
55003;SDS011;40900;52.710;6.438;2023-05-10T03:22:47;11.85;;;10.13;;
55003;SDS011;40900;52.710;6.438;2023-05-10T03:25:15;11.02;;;9.93;;
55003;SDS011;40900;52.710;6.438;2023-05-10T03:27:42;14.25;;;10.93;;
55003;SDS011;40900;52.710;6.438;2023-05-10T03:30:12;13.63;;;10.40;;
55003;SDS011;40900;52.710;6.438;2023-05-10T03:32:38;12.50;;;10.13;;
55003;SDS011;40900;52.710;6.438;2023-05-10T03:35:08;10.35;;;9.27;;
55003;SDS011;40900;52.710;6.438;2023-05-10T03:37:34;11.20;;;10.07;;
55003;SDS011;40900;52.710;6.438;2023-05-10T03:40:00;12.50;;;10.52;;
55003;SDS011;40900;52.710;6.438;2023-05-10T03:42:27;12.68;;;10.90;;
55003;SDS011;40900;52.710;6.438;2023-05-10T03:44:53;11.82;;;10.60;;
55003;SDS011;40900;52.710;6.438;2023-05-10T03:47:19;14.52;;;11.85;;
55003;SDS011;40900;52.710;6.438;2023-05-10T03:49:45;14.43;;;10.95;;
55003;SDS011;40900;52.710;6.438;2023-05-10T03:52:10;13.05;;;11.65;;
55003;SDS011;40900;52.710;6.438;2023-05-10T03:54:37;15.13;;;11.70;;
55003;SDS011;40900;52.710;6.438;2023-05-10T03:57:03;13.88;;;11.38;;
55003;SDS011;40900;52.710;6.438;2023-05-10T03:59:29;12.60;;;11.32;;
55003;SDS011;40900;52.710;6.438;2023-05-10T04:01:55;12.35;;;10.65;;
55003;SDS011;40900;52.710;6.438;2023-05-10T04:04:21;16.23;;;11.70;;
55003;SDS011;40900;52.710;6.438;2023-05-10T04:06:48;13.18;;;11.25;;
55003;SDS011;40900;52.710;6.438;2023-05-10T04:09:14;18.05;;;11.70;;
55003;SDS011;40900;52.710;6.438;2023-05-10T04:11:40;12.15;;;10.48;;
55003;SDS011;40900;52.710;6.438;2023-05-10T04:14:06;11.50;;;10.30;;
55003;SDS011;40900;52.710;6.438;2023-05-10T04:16:31;13.35;;;10.63;;
55003;SDS011;40900;52.710;6.438;2023-05-10T04:18:57;11.90;;;10.18;;
55003;SDS011;40900;52.710;6.438;2023-05-10T04:21:23;17.58;;;10.80;;
55003;SDS011;40900;52.710;6.438;2023-05-10T04:23:49;12.48;;;9.98;;
55003;SDS011;40900;52.710;6.438;2023-05-10T04:26:15;12.77;;;9.88;;
55003;SDS011;40900;52.710;6.438;2023-05-10T04:28:41;11.70;;;9.32;;
55003;SDS011;40900;52.710;6.438;2023-05-10T04:31:07;11.63;;;9.95;;
55003;SDS011;40900;52.710;6.438;2023-05-10T04:33:34;11.52;;;9.32;;
55003;SDS011;40900;52.710;6.438;2023-05-10T04:36:01;12.38;;;9.60;;
55003;SDS011;40900;52.710;6.438;2023-05-10T04:38:27;12.18;;;9.50;;
55003;SDS011;40900;52.710;6.438;2023-05-10T04:40:53;11.55;;;9.52;;
55003;SDS011;40900;52.710;6.438;2023-05-10T04:43:19;14.90;;;10.07;;
55003;SDS011;40900;52.710;6.438;2023-05-10T04:45:45;14.10;;;10.10;;
55003;SDS011;40900;52.710;6.438;2023-05-10T04:48:11;16.77;;;10.55;;
55003;SDS011;40900;52.710;6.438;2023-05-10T04:50:37;14.50;;;10.35;;
55003;SDS011;40900;52.710;6.438;2023-05-10T04:53:04;14.73;;;10.70;;
55003;SDS011;40900;52.710;6.438;2023-05-10T04:55:30;13.75;;;9.73;;
55003;SDS011;40900;52.710;6.438;2023-05-10T04:57:56;14.02;;;10.30;;
55003;SDS011;40900;52.710;6.438;2023-05-10T05:00:22;12.57;;;9.75;;
55003;SDS011;40900;52.710;6.438;2023-05-10T05:02:48;13.07;;;9.70;;
55003;SDS011;40900;52.710;6.438;2023-05-10T05:05:14;11.27;;;9.48;;
55003;SDS011;40900;52.710;6.438;2023-05-10T05:07:40;14.57;;;10.35;;
55003;SDS011;40900;52.710;6.438;2023-05-10T05:10:06;14.60;;;9.40;;
55003;SDS011;40900;52.710;6.438;2023-05-10T05:12:33;15.15;;;9.68;;
55003;SDS011;40900;52.710;6.438;2023-05-10T05:14:59;15.65;;;10.02;;
55003;SDS011;40900;52.710;6.438;2023-05-10T05:17:25;12.38;;;9.68;;
55003;SDS011;40900;52.710;6.438;2023-05-10T05:19:51;12.30;;;9.95;;
55003;SDS011;40900;52.710;6.438;2023-05-10T05:22:17;10.82;;;8.90;;
55003;SDS011;40900;52.710;6.438;2023-05-10T05:24:44;11.05;;;9.27;;
55003;SDS011;40900;52.710;6.438;2023-05-10T05:27:10;15.15;;;10.50;;
55003;SDS011;40900;52.710;6.438;2023-05-10T05:29:36;19.95;;;10.95;;
55003;SDS011;40900;52.710;6.438;2023-05-10T05:32:02;13.52;;;10.73;;
55003;SDS011;40900;52.710;6.438;2023-05-10T05:34:28;13.80;;;9.80;;
55003;SDS011;40900;52.710;6.438;2023-05-10T05:36:54;16.90;;;10.98;;
55003;SDS011;40900;52.710;6.438;2023-05-10T05:39:20;14.05;;;10.73;;
55003;SDS011;40900;52.710;6.438;2023-05-10T05:41:46;18.13;;;11.10;;
55003;SDS011;40900;52.710;6.438;2023-05-10T05:44:12;14.82;;;11.15;;
55003;SDS011;40900;52.710;6.438;2023-05-10T05:46:37;17.30;;;11.57;;
55003;SDS011;40900;52.710;6.438;2023-05-10T05:49:03;14.05;;;10.80;;
55003;SDS011;40900;52.710;6.438;2023-05-10T05:51:29;16.52;;;11.30;;
55003;SDS011;40900;52.710;6.438;2023-05-10T05:53:56;15.10;;;11.40;;
55003;SDS011;40900;52.710;6.438;2023-05-10T05:56:21;17.13;;;11.02;;
55003;SDS011;40900;52.710;6.438;2023-05-10T05:58:52;17.02;;;11.43;;
55003;SDS011;40900;52.710;6.438;2023-05-10T06:01:18;16.48;;;11.02;;
55003;SDS011;40900;52.710;6.438;2023-05-10T06:03:44;15.88;;;11.95;;
55003;SDS011;40900;52.710;6.438;2023-05-10T06:06:09;15.10;;;10.85;;
55003;SDS011;40900;52.710;6.438;2023-05-10T06:08:35;15.70;;;11.65;;
55003;SDS011;40900;52.710;6.438;2023-05-10T06:11:01;19.25;;;11.90;;
55003;SDS011;40900;52.710;6.438;2023-05-10T06:13:26;17.40;;;11.57;;
55003;SDS011;40900;52.710;6.438;2023-05-10T06:15:57;19.50;;;12.27;;
55003;SDS011;40900;52.710;6.438;2023-05-10T06:18:23;20.33;;;12.05;;
55003;SDS011;40900;52.710;6.438;2023-05-10T06:20:50;19.33;;;12.57;;
55003;SDS011;40900;52.710;6.438;2023-05-10T06:23:16;17.77;;;11.85;;
55003;SDS011;40900;52.710;6.438;2023-05-10T06:25:42;20.20;;;12.10;;
55003;SDS011;40900;52.710;6.438;2023-05-10T06:28:08;17.80;;;11.60;;
55003;SDS011;40900;52.710;6.438;2023-05-10T06:30:35;20.38;;;12.57;;
55003;SDS011;40900;52.710;6.438;2023-05-10T06:33:01;17.92;;;11.40;;
55003;SDS011;40900;52.710;6.438;2023-05-10T06:35:27;16.67;;;11.75;;
55003;SDS011;40900;52.710;6.438;2023-05-10T06:37:54;19.35;;;12.48;;
55003;SDS011;40900;52.710;6.438;2023-05-10T06:40:20;20.77;;;11.32;;
55003;SDS011;40900;52.710;6.438;2023-05-10T06:42:46;17.23;;;11.20;;
55003;SDS011;40900;52.710;6.438;2023-05-10T06:45:13;20.13;;;12.27;;
55003;SDS011;40900;52.710;6.438;2023-05-10T06:47:40;18.90;;;11.63;;
55003;SDS011;40900;52.710;6.438;2023-05-10T06:50:07;16.00;;;10.18;;
55003;SDS011;40900;52.710;6.438;2023-05-10T06:52:33;15.00;;;9.63;;
55003;SDS011;40900;52.710;6.438;2023-05-10T06:54:59;15.98;;;10.18;;
55003;SDS011;40900;52.710;6.438;2023-05-10T06:57:25;14.02;;;9.48;;
55003;SDS011;40900;52.710;6.438;2023-05-10T06:59:51;15.60;;;9.63;;
55003;SDS011;40900;52.710;6.438;2023-05-10T07:02:17;14.98;;;10.45;;
55003;SDS011;40900;52.710;6.438;2023-05-10T07:04:43;13.40;;;10.40;;
55003;SDS011;40900;52.710;6.438;2023-05-10T07:07:09;16.75;;;10.73;;
55003;SDS011;40900;52.710;6.438;2023-05-10T07:09:34;15.48;;;10.25;;
55003;SDS011;40900;52.710;6.438;2023-05-10T07:12:00;15.43;;;10.13;;
55003;SDS011;40900;52.710;6.438;2023-05-10T07:14:27;14.98;;;10.30;;
55003;SDS011;40900;52.710;6.438;2023-05-10T07:16:53;15.15;;;9.70;;
55003;SDS011;40900;52.710;6.438;2023-05-10T07:19:18;14.55;;;9.88;;
55003;SDS011;40900;52.710;6.438;2023-05-10T07:21:45;14.85;;;10.05;;
55003;SDS011;40900;52.710;6.438;2023-05-10T07:24:11;16.40;;;9.82;;
55003;SDS011;40900;52.710;6.438;2023-05-10T07:26:36;14.63;;;10.13;;
55003;SDS011;40900;52.710;6.438;2023-05-10T07:29:02;17.25;;;10.10;;
55003;SDS011;40900;52.710;6.438;2023-05-10T07:31:28;12.23;;;9.20;;
55003;SDS011;40900;52.710;6.438;2023-05-10T07:33:54;12.85;;;8.95;;
55003;SDS011;40900;52.710;6.438;2023-05-10T07:36:19;13.10;;;9.45;;
55003;SDS011;40900;52.710;6.438;2023-05-10T07:38:45;12.55;;;9.07;;
55003;SDS011;40900;52.710;6.438;2023-05-10T07:41:11;13.00;;;8.75;;
55003;SDS011;40900;52.710;6.438;2023-05-10T07:43:37;15.68;;;9.60;;
55003;SDS011;40900;52.710;6.438;2023-05-10T07:46:03;11.88;;;8.10;;
55003;SDS011;40900;52.710;6.438;2023-05-10T07:48:30;13.32;;;8.63;;
55003;SDS011;40900;52.710;6.438;2023-05-10T07:50:56;10.45;;;7.63;;
55003;SDS011;40900;52.710;6.438;2023-05-10T07:53:22;13.38;;;8.13;;
55003;SDS011;40900;52.710;6.438;2023-05-10T07:55:51;11.10;;;6.97;;
55003;SDS011;40900;52.710;6.438;2023-05-10T07:58:19;10.10;;;6.80;;
55003;SDS011;40900;52.710;6.438;2023-05-10T08:00:45;10.75;;;7.15;;
55003;SDS011;40900;52.710;6.438;2023-05-10T08:03:11;9.20;;;6.10;;
55003;SDS011;40900;52.710;6.438;2023-05-10T08:05:37;7.40;;;5.60;;
55003;SDS011;40900;52.710;6.438;2023-05-10T08:08:02;7.15;;;4.95;;
55003;SDS011;40900;52.710;6.438;2023-05-10T08:10:28;8.23;;;5.32;;
55003;SDS011;40900;52.710;6.438;2023-05-10T08:12:54;7.18;;;4.32;;
55003;SDS011;40900;52.710;6.438;2023-05-10T08:15:20;5.97;;;4.38;;
55003;SDS011;40900;52.710;6.438;2023-05-10T08:17:46;6.50;;;4.57;;
55003;SDS011;40900;52.710;6.438;2023-05-10T08:20:11;6.65;;;4.47;;
55003;SDS011;40900;52.710;6.438;2023-05-10T08:22:37;5.38;;;4.35;;
55003;SDS011;40900;52.710;6.438;2023-05-10T08:25:03;6.68;;;4.25;;
55003;SDS011;40900;52.710;6.438;2023-05-10T08:27:30;6.18;;;4.40;;
55003;SDS011;40900;52.710;6.438;2023-05-10T08:29:55;5.90;;;4.57;;
55003;SDS011;40900;52.710;6.438;2023-05-10T08:32:21;8.05;;;4.88;;
55003;SDS011;40900;52.710;6.438;2023-05-10T08:34:47;5.75;;;4.50;;
55003;SDS011;40900;52.710;6.438;2023-05-10T08:37:12;7.13;;;4.72;;
55003;SDS011;40900;52.710;6.438;2023-05-10T08:39:38;5.75;;;4.35;;
55003;SDS011;40900;52.710;6.438;2023-05-10T08:42:04;6.53;;;4.20;;
55003;SDS011;40900;52.710;6.438;2023-05-10T08:44:32;5.25;;;4.10;;
55003;SDS011;40900;52.710;6.438;2023-05-10T08:47:02;5.88;;;4.18;;
55003;SDS011;40900;52.710;6.438;2023-05-10T08:49:32;5.30;;;4.10;;
55003;SDS011;40900;52.710;6.438;2023-05-10T08:51:59;6.70;;;4.47;;
55003;SDS011;40900;52.710;6.438;2023-05-10T08:54:31;4.68;;;3.97;;
55003;SDS011;40900;52.710;6.438;2023-05-10T08:56:58;4.93;;;3.67;;
55003;SDS011;40900;52.710;6.438;2023-05-10T08:59:24;5.28;;;4.22;;
55003;SDS011;40900;52.710;6.438;2023-05-10T09:01:49;5.57;;;4.40;;
55003;SDS011;40900;52.710;6.438;2023-05-10T09:04:16;5.43;;;4.72;;
55003;SDS011;40900;52.710;6.438;2023-05-10T09:06:48;5.57;;;4.70;;
55003;SDS011;40900;52.710;6.438;2023-05-10T09:09:14;7.65;;;5.25;;
55003;SDS011;40900;52.710;6.438;2023-05-10T09:11:41;6.70;;;5.00;;
55003;SDS011;40900;52.710;6.438;2023-05-10T09:14:07;6.32;;;5.10;;
55003;SDS011;40900;52.710;6.438;2023-05-10T09:16:34;6.40;;;4.75;;
55003;SDS011;40900;52.710;6.438;2023-05-10T09:19:00;8.18;;;5.90;;
55003;SDS011;40900;52.710;6.438;2023-05-10T09:21:26;7.07;;;5.60;;
55003;SDS011;40900;52.710;6.438;2023-05-10T09:23:52;7.38;;;6.05;;
55003;SDS011;40900;52.710;6.438;2023-05-10T09:26:23;7.03;;;6.30;;
55003;SDS011;40900;52.710;6.438;2023-05-10T09:28:50;8.15;;;6.57;;
55003;SDS011;40900;52.710;6.438;2023-05-10T09:31:21;10.85;;;6.85;;
55003;SDS011;40900;52.710;6.438;2023-05-10T09:33:47;8.00;;;6.97;;
55003;SDS011;40900;52.710;6.438;2023-05-10T09:36:14;13.27;;;7.95;;
55003;SDS011;40900;52.710;6.438;2023-05-10T09:38:50;9.32;;;7.93;;
55003;SDS011;40900;52.710;6.438;2023-05-10T09:41:17;9.50;;;7.80;;
55003;SDS011;40900;52.710;6.438;2023-05-10T09:43:44;9.15;;;7.60;;
55003;SDS011;40900;52.710;6.438;2023-05-10T09:46:10;8.95;;;7.35;;
55003;SDS011;40900;52.710;6.438;2023-05-10T09:48:46;9.57;;;8.15;;
55003;SDS011;40900;52.710;6.438;2023-05-10T09:51:22;11.35;;;8.80;;
55003;SDS011;40900;52.710;6.438;2023-05-10T09:54:08;10.27;;;8.15;;
55003;SDS011;40900;52.710;6.438;2023-05-10T09:56:35;10.00;;;8.75;;
55003;SDS011;40900;52.710;6.438;2023-05-10T09:59:04;13.30;;;9.02;;
55003;SDS011;40900;52.710;6.438;2023-05-10T10:01:30;10.63;;;9.43;;
55003;SDS011;40900;52.710;6.438;2023-05-10T10:03:56;13.30;;;10.13;;
55003;SDS011;40900;52.710;6.438;2023-05-10T10:06:23;12.77;;;9.50;;
55003;SDS011;40900;52.710;6.438;2023-05-10T10:08:50;11.52;;;10.10;;
55003;SDS011;40900;52.710;6.438;2023-05-10T10:11:16;11.40;;;9.68;;
55003;SDS011;40900;52.710;6.438;2023-05-10T10:13:42;14.15;;;10.18;;
55003;SDS011;40900;52.710;6.438;2023-05-10T10:16:08;16.20;;;10.45;;
55003;SDS011;40900;52.710;6.438;2023-05-10T10:18:35;13.75;;;10.25;;
55003;SDS011;40900;52.710;6.438;2023-05-10T10:21:07;11.48;;;10.07;;
55003;SDS011;40900;52.710;6.438;2023-05-10T10:23:35;11.82;;;10.10;;
55003;SDS011;40900;52.710;6.438;2023-05-10T10:26:02;11.98;;;10.48;;
55003;SDS011;40900;52.710;6.438;2023-05-10T10:34:17;13.18;;;10.27;;
55003;SDS011;40900;52.710;6.438;2023-05-10T10:36:55;12.10;;;10.45;;
55003;SDS011;40900;52.710;6.438;2023-05-10T10:39:22;13.07;;;10.07;;
55003;SDS011;40900;52.710;6.438;2023-05-10T10:41:52;10.75;;;9.60;;
55003;SDS011;40900;52.710;6.438;2023-05-10T10:54:52;12.40;;;10.48;;
55003;SDS011;40900;52.710;6.438;2023-05-10T10:57:25;12.00;;;9.70;;
55003;SDS011;40900;52.710;6.438;2023-05-10T10:59:53;10.13;;;8.07;;
55003;SDS011;40900;52.710;6.438;2023-05-10T11:03:14;10.48;;;8.40;;
55003;SDS011;40900;52.710;6.438;2023-05-10T11:05:47;10.90;;;9.05;;
55003;SDS011;40900;52.710;6.438;2023-05-10T11:08:47;10.35;;;9.25;;
55003;SDS011;40900;52.710;6.438;2023-05-10T11:11:08;13.38;;;10.32;;
55003;SDS011;40900;52.710;6.438;2023-05-10T11:18:37;12.10;;;10.23;;
55003;SDS011;40900;52.710;6.438;2023-05-10T11:21:03;16.95;;;11.40;;
55003;SDS011;40900;52.710;6.438;2023-05-10T11:26:07;16.25;;;12.15;;
55003;SDS011;40900;52.710;6.438;2023-05-10T11:28:45;13.32;;;11.50;;
55003;SDS011;40900;52.710;6.438;2023-05-10T11:31:14;18.70;;;12.23;;
55003;SDS011;40900;52.710;6.438;2023-05-10T11:33:48;13.93;;;12.05;;
55003;SDS011;40900;52.710;6.438;2023-05-10T11:36:19;14.23;;;12.10;;
55003;SDS011;40900;52.710;6.438;2023-05-10T11:38:52;12.77;;;11.30;;
55003;SDS011;40900;52.710;6.438;2023-05-10T11:41:19;15.23;;;12.40;;
55003;SDS011;40900;52.710;6.438;2023-05-10T11:43:54;15.93;;;12.05;;
55003;SDS011;40900;52.710;6.438;2023-05-10T11:46:22;14.27;;;12.50;;
55003;SDS011;40900;52.710;6.438;2023-05-10T11:48:57;14.55;;;12.52;;
55003;SDS011;40900;52.710;6.438;2023-05-10T11:51:26;16.40;;;12.63;;
55003;SDS011;40900;52.710;6.438;2023-05-10T11:53:53;16.92;;;13.35;;
55003;SDS011;40900;52.710;6.438;2023-05-10T11:56:20;16.73;;;13.40;;
55003;SDS011;40900;52.710;6.438;2023-05-10T11:58:52;16.15;;;13.02;;
55003;SDS011;40900;52.710;6.438;2023-05-10T12:01:19;13.45;;;9.98;;
55003;SDS011;40900;52.710;6.438;2023-05-10T12:03:45;11.43;;;9.35;;
55003;SDS011;40900;52.710;6.438;2023-05-10T12:06:12;14.82;;;10.77;;
55003;SDS011;40900;52.710;6.438;2023-05-10T12:08:43;13.23;;;11.20;;
55003;SDS011;40900;52.710;6.438;2023-05-10T12:11:12;11.73;;;9.50;;
55003;SDS011;40900;52.710;6.438;2023-05-10T12:13:42;14.35;;;10.35;;
55003;SDS011;40900;52.710;6.438;2023-05-10T12:16:15;11.00;;;8.90;;
55003;SDS011;40900;52.710;6.438;2023-05-10T12:18:43;12.85;;;9.40;;
55003;SDS011;40900;52.710;6.438;2023-05-10T12:21:10;11.85;;;10.60;;
55003;SDS011;40900;52.710;6.438;2023-05-10T12:23:37;14.18;;;11.75;;
55003;SDS011;40900;52.710;6.438;2023-05-10T12:26:04;13.82;;;12.30;;
55003;SDS011;40900;52.710;6.438;2023-05-10T12:28:31;17.23;;;12.60;;
55003;SDS011;40900;52.710;6.438;2023-05-10T12:30:58;15.55;;;13.05;;
55003;SDS011;40900;52.710;6.438;2023-05-10T12:33:25;16.65;;;13.82;;
55003;SDS011;40900;52.710;6.438;2023-05-10T12:35:52;15.40;;;13.75;;
55003;SDS011;40900;52.710;6.438;2023-05-10T12:38:24;16.77;;;13.52;;
55003;SDS011;40900;52.710;6.438;2023-05-10T12:40:51;15.23;;;12.60;;
55003;SDS011;40900;52.710;6.438;2023-05-10T12:43:17;15.25;;;13.13;;
55003;SDS011;40900;52.710;6.438;2023-05-10T12:45:43;14.05;;;12.30;;
55003;SDS011;40900;52.710;6.438;2023-05-10T12:48:13;15.88;;;13.15;;
55003;SDS011;40900;52.710;6.438;2023-05-10T12:50:38;18.00;;;14.18;;
55003;SDS011;40900;52.710;6.438;2023-05-10T12:53:04;15.75;;;12.18;;
55003;SDS011;40900;52.710;6.438;2023-05-10T12:55:30;14.55;;;11.43;;
55003;SDS011;40900;52.710;6.438;2023-05-10T12:57:56;15.63;;;11.88;;
55003;SDS011;40900;52.710;6.438;2023-05-10T13:00:23;15.00;;;11.40;;
55003;SDS011;40900;52.710;6.438;2023-05-10T13:02:49;13.40;;;11.07;;
55003;SDS011;40900;52.710;6.438;2023-05-10T13:05:14;16.00;;;11.05;;
55003;SDS011;40900;52.710;6.438;2023-05-10T13:07:40;12.65;;;9.25;;
55003;SDS011;40900;52.710;6.438;2023-05-10T13:10:06;9.85;;;7.63;;
55003;SDS011;40900;52.710;6.438;2023-05-10T13:12:32;9.88;;;7.35;;
55003;SDS011;40900;52.710;6.438;2023-05-10T13:14:58;10.10;;;7.60;;
55003;SDS011;40900;52.710;6.438;2023-05-10T13:17:25;10.82;;;8.00;;
55003;SDS011;40900;52.710;6.438;2023-05-10T13:19:51;9.32;;;7.78;;
55003;SDS011;40900;52.710;6.438;2023-05-10T13:22:17;11.25;;;8.98;;
55003;SDS011;40900;52.710;6.438;2023-05-10T13:24:43;12.50;;;8.75;;
55003;SDS011;40900;52.710;6.438;2023-05-10T13:27:08;13.52;;;10.00;;
55003;SDS011;40900;52.710;6.438;2023-05-10T13:29:34;11.75;;;10.10;;
55003;SDS011;40900;52.710;6.438;2023-05-10T13:32:01;11.45;;;9.98;;
55003;SDS011;40900;52.710;6.438;2023-05-10T13:34:27;11.98;;;10.25;;
55003;SDS011;40900;52.710;6.438;2023-05-10T13:36:53;12.80;;;10.15;;
55003;SDS011;40900;52.710;6.438;2023-05-10T13:39:19;13.82;;;10.27;;
55003;SDS011;40900;52.710;6.438;2023-05-10T13:41:45;13.52;;;10.95;;
55003;SDS011;40900;52.710;6.438;2023-05-10T13:44:12;14.25;;;10.80;;
55003;SDS011;40900;52.710;6.438;2023-05-10T13:46:39;12.80;;;10.32;;
55003;SDS011;40900;52.710;6.438;2023-05-10T13:49:05;13.52;;;9.82;;
55003;SDS011;40900;52.710;6.438;2023-05-10T13:51:33;13.13;;;9.48;;
55003;SDS011;40900;52.710;6.438;2023-05-10T13:53:59;14.55;;;10.25;;
55003;SDS011;40900;52.710;6.438;2023-05-10T13:56:24;13.30;;;10.07;;
55003;SDS011;40900;52.710;6.438;2023-05-10T13:58:50;12.65;;;10.52;;
55003;SDS011;40900;52.710;6.438;2023-05-10T14:01:16;12.93;;;10.75;;
55003;SDS011;40900;52.710;6.438;2023-05-10T14:03:42;12.60;;;10.10;;
55003;SDS011;40900;52.710;6.438;2023-05-10T14:06:07;12.00;;;10.57;;
55003;SDS011;40900;52.710;6.438;2023-05-10T14:08:34;13.30;;;11.23;;
55003;SDS011;40900;52.710;6.438;2023-05-10T14:11:00;14.32;;;11.48;;
55003;SDS011;40900;52.710;6.438;2023-05-10T14:13:26;16.00;;;12.00;;
55003;SDS011;40900;52.710;6.438;2023-05-10T14:15:53;15.52;;;11.77;;
55003;SDS011;40900;52.710;6.438;2023-05-10T14:18:19;16.08;;;11.70;;
55003;SDS011;40900;52.710;6.438;2023-05-10T14:20:45;14.93;;;11.38;;
55003;SDS011;40900;52.710;6.438;2023-05-10T14:23:11;15.73;;;12.05;;
55003;SDS011;40900;52.710;6.438;2023-05-10T14:25:37;15.60;;;11.70;;
55003;SDS011;40900;52.710;6.438;2023-05-10T14:28:05;18.75;;;11.50;;
55003;SDS011;40900;52.710;6.438;2023-05-10T14:30:31;14.07;;;12.05;;
55003;SDS011;40900;52.710;6.438;2023-05-10T14:32:59;15.20;;;12.00;;
55003;SDS011;40900;52.710;6.438;2023-05-10T14:35:26;18.20;;;12.02;;
55003;SDS011;40900;52.710;6.438;2023-05-10T14:37:52;14.95;;;11.75;;
55003;SDS011;40900;52.710;6.438;2023-05-10T14:40:18;15.30;;;12.20;;
55003;SDS011;40900;52.710;6.438;2023-05-10T14:42:44;16.35;;;12.57;;
55003;SDS011;40900;52.710;6.438;2023-05-10T14:45:10;17.45;;;13.20;;
55003;SDS011;40900;52.710;6.438;2023-05-10T14:47:37;19.65;;;13.15;;
55003;SDS011;40900;52.710;6.438;2023-05-10T14:50:02;17.55;;;12.75;;
55003;SDS011;40900;52.710;6.438;2023-05-10T14:52:28;15.55;;;12.32;;
55003;SDS011;40900;52.710;6.438;2023-05-10T14:54:54;15.50;;;11.20;;
55003;SDS011;40900;52.710;6.438;2023-05-10T14:57:20;14.30;;;11.95;;
55003;SDS011;40900;52.710;6.438;2023-05-10T14:59:46;17.42;;;12.35;;
55003;SDS011;40900;52.710;6.438;2023-05-10T15:02:11;23.23;;;13.43;;
55003;SDS011;40900;52.710;6.438;2023-05-10T15:04:39;14.57;;;11.98;;
55003;SDS011;40900;52.710;6.438;2023-05-10T15:07:05;19.02;;;12.25;;
55003;SDS011;40900;52.710;6.438;2023-05-10T15:09:30;16.00;;;12.27;;
55003;SDS011;40900;52.710;6.438;2023-05-10T15:11:56;16.42;;;12.75;;